Time;durP1;ratioP1;P1;durP2;ratioP2;P2;SDS_P1;SDS_P2;PMS_P1;PMS_P2;Temp;Humidity;BMP_temperature;BMP_pressure;BME280_temperature;BME280_humidity;BME280_pressure;Samples;Min_cycle;Max_cycle;Signal;HPM_P1;HPM_P2
2022/12/10 00:00:11;;;;;;;5.82;5.13;;;15.60;43.90;;;;;;5088316;28;45217;-76
2022/12/10 00:02:39;;;;;;;7.10;5.50;;;15.60;44.00;;;;;;5088734;28;45208;-76
2022/12/10 00:05:07;;;;;;;6.63;5.47;;;15.50;43.90;;;;;;5089008;28;45485;-76
2022/12/10 00:07:33;;;;;;;6.95;5.70;;;15.50;44.00;;;;;;5088278;28;46876;-76
2022/12/10 00:10:00;;;;;;;6.45;5.18;;;15.50;44.10;;;;;;5088170;28;45214;-76
2022/12/10 00:12:30;;;;;;;5.85;5.25;;;15.50;44.10;;;;;;5088493;28;45213;-76
2022/12/10 00:14:57;;;;;;;6.00;5.40;;;15.50;44.10;;;;;;5088490;28;45292;-76
2022/12/10 00:17:25;;;;;;;7.50;5.53;;;15.50;44.10;;;;;;5088047;28;45714;-76
2022/12/10 00:19:53;;;;;;;7.35;5.63;;;15.50;44.00;;;;;;5088750;28;45190;-76
2022/12/10 00:22:20;;;;;;;6.70;5.35;;;15.60;44.00;;;;;;5088861;28;45308;-76
2022/12/10 00:24:47;;;;;;;6.80;5.15;;;15.60;43.90;;;;;;5089281;28;45353;-76
2022/12/10 00:27:14;;;;;;;7.65;5.75;;;15.60;43.80;;;;;;5088165;28;47738;-76
2022/12/10 00:29:41;;;;;;;7.32;5.40;;;15.70;43.80;;;;;;5088756;28;45318;-76
2022/12/10 00:32:08;;;;;;;5.53;4.88;;;15.80;43.70;;;;;;5088731;28;45205;-76
2022/12/10 00:34:35;;;;;;;6.40;5.25;;;15.80;43.60;;;;;;5088595;28;45607;-76
2022/12/10 00:37:03;;;;;;;6.45;4.90;;;15.90;43.50;;;;;;5087443;28;45409;-76
2022/12/10 00:39:30;;;;;;;7.20;5.63;;;15.90;43.40;;;;;;5088280;28;45239;-76
2022/12/10 00:41:57;;;;;;;5.80;5.00;;;16.00;43.40;;;;;;5088129;28;45222;-76
2022/12/10 00:44:25;;;;;;;8.23;5.35;;;16.00;43.30;;;;;;5088192;28;45307;-76
2022/12/10 00:46:52;;;;;;;6.15;5.22;;;16.00;43.30;;;;;;5095616;27;45386;-76
2022/12/10 00:49:22;;;;;;;5.13;4.63;;;16.00;43.30;;;;;;5102266;27;45349;-76
2022/12/10 00:51:49;;;;;;;5.57;4.85;;;16.00;43.30;;;;;;5087953;28;45270;-76
2022/12/10 00:54:18;;;;;;;7.68;5.20;;;16.00;43.30;;;;;;5088688;28;45452;-76
2022/12/10 00:56:45;;;;;;;6.53;5.07;;;16.00;43.30;;;;;;5087819;28;45219;-76
2022/12/10 00:59:12;;;;;;;6.15;5.55;;;16.00;43.30;;;;;;5088143;28;45198;-76
2022/12/10 01:01:40;;;;;;;5.55;4.80;;;16.00;43.30;;;;;;5088170;28;45517;-76
2022/12/10 01:04:08;;;;;;;5.90;4.80;;;16.00;43.30;;;;;;5088209;28;45440;-76
2022/12/10 01:06:36;;;;;;;6.03;5.32;;;15.90;43.30;;;;;;5088212;28;46651;-76
2022/12/10 01:09:04;;;;;;;6.30;4.97;;;15.90;43.30;;;;;;5088511;28;45361;-76
2022/12/10 01:11:34;;;;;;;6.32;4.68;;;15.90;43.40;;;;;;5088832;28;45419;-76
2022/12/10 01:14:01;;;;;;;6.05;4.70;;;15.90;43.50;;;;;;5088685;28;45246;-76
2022/12/10 01:16:28;;;;;;;6.50;4.88;;;15.80;43.50;;;;;;5088021;28;46347;-76
2022/12/10 01:18:55;;;;;;;6.18;5.03;;;15.80;43.70;;;;;;5088822;28;45442;-76
2022/12/10 01:21:22;;;;;;;6.35;4.95;;;15.80;43.50;;;;;;5089825;27;45371;-76
2022/12/10 01:23:50;;;;;;;5.72;4.90;;;15.80;43.60;;;;;;5091829;28;45232;-77
2022/12/10 01:26:18;;;;;;;5.88;4.88;;;15.70;43.60;;;;;;5091884;28;47431;-76
2022/12/10 01:28:47;;;;;;;5.78;4.72;;;15.70;43.60;;;;;;5091453;28;45310;-76
2022/12/10 01:31:15;;;;;;;6.47;5.03;;;15.70;43.70;;;;;;5092335;28;45430;-76
2022/12/10 01:33:42;;;;;;;5.57;5.07;;;15.60;43.70;;;;;;5092124;28;45463;-76
2022/12/10 01:36:11;;;;;;;7.13;4.65;;;15.60;43.80;;;;;;5091721;28;47331;-76
2022/12/10 01:38:39;;;;;;;7.55;4.82;;;15.60;43.90;;;;;;5091275;28;45300;-76
2022/12/10 01:41:07;;;;;;;6.32;4.97;;;15.60;43.90;;;;;;5091451;28;45142;-76
2022/12/10 01:43:52;;;;;;;5.57;4.65;;;15.50;43.90;;;;;;5091680;28;45195;-76
2022/12/10 01:46:19;;;;;;;5.97;4.65;;;15.50;44.00;;;;;;5094436;27;46362;-76
2022/12/10 01:48:46;;;;;;;6.65;5.13;;;15.50;44.10;;;;;;5110308;27;45486;-76
2022/12/10 01:51:13;;;;;;;5.88;5.20;;;15.40;44.00;;;;;;5091365;28;45252;-76
2022/12/10 01:53:40;;;;;;;6.30;5.45;;;15.50;44.10;;;;;;5091581;28;45268;-76
2022/12/10 01:56:07;;;;;;;5.35;4.85;;;15.40;44.10;;;;;;5091454;28;46710;-76
2022/12/10 01:58:34;;;;;;;6.35;4.85;;;15.40;44.10;;;;;;5091474;28;45193;-76
2022/12/10 02:01:07;;;;;;;5.30;4.25;;;15.50;44.10;;;;;;5091359;28;45456;-76
2022/12/10 02:03:41;;;;;;;4.93;4.43;;;15.50;44.10;;;;;;5092325;28;45447;-76
2022/12/10 02:06:16;;;;;;;5.90;4.55;;;15.60;44.00;;;;;;5091066;28;46992;-76
2022/12/10 02:08:45;;;;;;;6.18;4.95;;;15.70;43.80;;;;;;5091318;28;45209;-76
2022/12/10 02:11:16;;;;;;;6.10;4.40;;;15.80;43.70;;;;;;5091582;28;45332;-76
2022/12/10 02:13:44;;;;;;;5.40;4.40;;;15.90;43.70;;;;;;5091190;28;45197;-76
2022/12/10 02:16:15;;;;;;;5.28;4.68;;;15.90;43.50;;;;;;5091335;28;46648;-76
2022/12/10 02:18:44;;;;;;;5.40;4.50;;;15.90;43.50;;;;;;5091792;28;45397;-76
2022/12/10 02:21:13;;;;;;;4.72;4.15;;;16.00;43.50;;;;;;5091962;28;45296;-76
2022/12/10 02:23:40;;;;;;;5.20;4.70;;;16.00;43.40;;;;;;5091806;28;45225;-76
2022/12/10 02:26:15;;;;;;;5.35;4.63;;;16.00;43.30;;;;;;5091685;28;45182;-76
2022/12/10 02:28:47;;;;;;;5.38;4.63;;;16.00;43.30;;;;;;5091605;28;45185;-76
2022/12/10 02:31:16;;;;;;;5.55;4.47;;;16.00;43.30;;;;;;5091865;28;45285;-76
2022/12/10 02:33:44;;;;;;;5.63;4.97;;;15.90;43.30;;;;;;5090838;27;45182;-76
2022/12/10 02:36:11;;;;;;;6.22;5.13;;;15.90;43.30;;;;;;5091842;28;45370;-76
2022/12/10 02:38:38;;;;;;;7.35;4.93;;;15.90;43.90;;;;;;5091423;28;45395;-76
2022/12/10 02:41:06;;;;;;;5.80;4.18;;;15.90;43.40;;;;;;5092178;28;45206;-76
2022/12/10 02:43:33;;;;;;;5.35;4.75;;;15.90;43.40;;;;;;5092528;28;45389;-76
2022/12/10 02:46:00;;;;;;;5.50;4.35;;;15.80;43.40;;;;;;5092164;27;46799;-76
2022/12/10 02:48:29;;;;;;;5.65;5.00;;;15.80;43.40;;;;;;5112712;27;45417;-76
2022/12/10 02:50:56;;;;;;;6.05;4.82;;;15.80;43.50;;;;;;5092111;27;45383;-77
2022/12/10 02:53:23;;;;;;;5.18;4.60;;;15.80;43.50;;;;;;5092255;28;45521;-76
2022/12/10 02:55:57;;;;;;;5.15;4.60;;;15.70;43.60;;;;;;5092346;28;45197;-76
2022/12/10 02:58:27;;;;;;;5.95;4.65;;;15.70;43.60;;;;;;5092135;28;45217;-76
2022/12/10 03:00:57;;;;;;;5.50;4.93;;;15.70;43.70;;;;;;5092083;28;45304;-76
2022/12/10 03:03:33;;;;;;;6.30;4.78;;;15.60;43.70;;;;;;5092517;28;45502;-76
2022/12/10 03:06:04;;;;;;;5.20;4.43;;;15.60;43.70;;;;;;5091390;28;45593;-76
2022/12/10 03:08:33;;;;;;;6.93;5.05;;;15.60;43.80;;;;;;5091407;28;45350;-76
2022/12/10 03:11:04;;;;;;;5.78;4.75;;;15.60;43.90;;;;;;5091495;28;45392;-76
2022/12/10 03:13:33;;;;;;;5.30;4.38;;;15.60;44.00;;;;;;5091656;28;45439;-76
2022/12/10 03:16:00;;;;;;;5.85;4.60;;;15.50;44.00;;;;;;5090784;28;46352;-76
2022/12/10 03:18:32;;;;;;;5.35;4.30;;;15.50;44.00;;;;;;5090452;28;45747;-76
2022/12/10 03:21:00;;;;;;;5.65;4.50;;;15.50;44.10;;;;;;5090911;28;45218;-76
2022/12/10 03:23:27;;;;;;;5.32;4.38;;;15.40;44.10;;;;;;5090382;28;45288;-76
2022/12/10 03:25:54;;;;;;;5.13;4.63;;;15.40;44.10;;;;;;5089718;28;45568;-76
2022/12/10 03:28:21;;;;;;;6.07;4.70;;;15.40;44.20;;;;;;5089424;28;45269;-76
2022/12/10 03:30:48;;;;;;;6.88;5.10;;;15.40;44.30;;;;;;5089496;28;45335;-76
2022/12/10 03:33:15;;;;;;;5.43;4.80;;;15.40;44.30;;;;;;5089156;28;45446;-76
2022/12/10 03:35:44;;;;;;;5.38;4.32;;;15.40;44.30;;;;;;5088424;28;46740;-75
2022/12/10 03:38:11;;;;;;;6.05;5.00;;;15.40;44.30;;;;;;5088639;28;45252;-76
2022/12/10 03:40:38;;;;;;;4.43;3.97;;;15.50;44.20;;;;;;5088147;28;45134;-76
2022/12/10 03:43:05;;;;;;;6.88;4.47;;;15.50;44.10;;;;;;5088186;28;45213;-76
2022/12/10 03:45:32;;;;;;;5.07;4.25;;;15.60;44.00;;;;;;5087066;28;45316;-75
2022/12/10 03:47:59;;;;;;;5.28;4.38;;;15.70;43.90;;;;;;5104692;27;45337;-75
2022/12/10 03:50:26;;;;;;;6.07;4.60;;;15.70;43.80;;;;;;5091957;27;45230;-75
2022/12/10 03:52:54;;;;;;;5.35;4.50;;;15.80;43.70;;;;;;5087817;28;45194;-76
2022/12/10 03:55:21;;;;;;;5.22;4.40;;;15.80;43.60;;;;;;5087480;28;45274;-75
2022/12/10 03:57:48;;;;;;;6.85;4.93;;;15.80;43.60;;;;;;5087356;28;45249;-75
2022/12/10 04:00:15;;;;;;;5.15;4.07;;;15.90;43.50;;;;;;5087601;28;45398;-75
2022/12/10 04:02:42;;;;;;;4.63;4.07;;;15.90;43.50;;;;;;5087748;28;45178;-76
2022/12/10 04:05:09;;;;;;;5.65;4.50;;;15.90;43.60;;;;;;5087050;28;45414;-75
2022/12/10 04:07:36;;;;;;;5.28;4.43;;;15.90;43.40;;;;;;5086423;28;45257;-76
2022/12/10 04:10:05;;;;;;;5.93;4.53;;;15.90;43.40;;;;;;5087215;28;45238;-76
2022/12/10 04:12:32;;;;;;;6.65;4.45;;;15.80;43.40;;;;;;5087423;28;45185;-75
2022/12/10 04:17:43;;;;;;;4.72;4.00;;;15.80;43.40;;;;;;5084611;28;45193;-75
2022/12/10 04:26:51;;;;;;;4.97;4.50;;;15.80;43.50;;;;;;5087361;28;45161;-75
2022/12/10 04:28:27;;;;;;;5.10;4.40;;;15.80;43.50;;;;;;5086327;28;45426;-75
2022/12/10 04:30:54;;;;;;;4.68;4.13;;;15.70;43.60;;;;;;5086730;28;45444;-75
2022/12/10 04:33:21;;;;;;;4.80;4.30;;;15.70;43.70;;;;;;5086853;28;45244;-75
2022/12/10 04:35:48;;;;;;;5.80;4.35;;;15.70;43.70;;;;;;5086606;28;45308;-75
2022/12/10 04:38:15;;;;;;;6.70;4.40;;;15.70;43.70;;;;;;5086820;28;45767;-75
2022/12/10 04:40:44;;;;;;;6.05;4.10;;;15.60;43.70;;;;;;5086768;28;45323;-75
2022/12/10 04:43:11;;;;;;;5.63;4.47;;;15.60;43.80;;;;;;5087109;28;45394;-75
2022/12/10 04:45:38;;;;;;;4.63;4.13;;;15.60;43.90;;;;;;5086491;28;46620;-75
2022/12/10 04:48:05;;;;;;;4.65;4.05;;;15.60;43.90;;;;;;5104806;27;45233;-75
2022/12/10 04:50:32;;;;;;;6.90;4.38;;;15.50;43.90;;;;;;5090481;27;45439;-74
2022/12/10 04:52:59;;;;;;;6.15;4.72;;;15.50;44.00;;;;;;5086442;28;45460;-76
2022/12/10 04:55:25;;;;;;;5.60;4.63;;;15.50;44.00;;;;;;5086545;27;46984;-76
2022/12/10 04:57:54;;;;;;;5.68;4.20;;;15.50;44.10;;;;;;5089937;28;45264;-75
2022/12/10 05:00:21;;;;;;;5.60;4.22;;;15.40;44.10;;;;;;5090659;28;45367;-75
2022/12/10 05:02:49;;;;;;;4.47;4.00;;;15.40;44.80;;;;;;5090304;28;45558;-75
2022/12/10 05:05:16;;;;;;;5.32;4.30;;;15.40;44.20;;;;;;5090032;28;46391;-76
2022/12/10 05:07:43;;;;;;;5.50;4.50;;;15.40;44.30;;;;;;5090071;28;45273;-75
2022/12/10 05:10:10;;;;;;;5.65;4.43;;;15.30;44.30;;;;;;5090295;28;45188;-76
2022/12/10 05:12:37;;;;;;;5.25;4.05;;;15.40;44.40;;;;;;5089442;28;45299;-75
2022/12/10 05:15:06;;;;;;;5.60;4.63;;;15.40;44.30;;;;;;5089896;28;45343;-75
2022/12/10 05:17:34;;;;;;;5.30;4.30;;;15.40;44.20;;;;;;5089846;28;45260;-75
2022/12/10 05:20:01;;;;;;;4.65;4.00;;;15.50;44.10;;;;;;5090090;28;45193;-76
2022/12/10 05:25:12;;;;;;;4.60;3.97;;;15.60;44.00;;;;;;5087009;28;45825;-75
2022/12/10 05:27:39;;;;;;;4.15;3.72;;;15.70;43.90;;;;;;5089667;28;45410;-75
2022/12/10 05:30:09;;;;;;;5.00;3.97;;;15.70;43.80;;;;;;5089486;28;45300;-75
2022/12/10 05:32:36;;;;;;;4.82;4.05;;;15.80;43.70;;;;;;5089777;28;45545;-75
2022/12/10 05:35:03;;;;;;;4.93;4.43;;;15.80;43.60;;;;;;5089636;28;46793;-76
2022/12/10 05:37:30;;;;;;;5.13;4.18;;;15.90;43.60;;;;;;5089391;28;45313;-76
2022/12/10 05:39:58;;;;;;;5.55;4.10;;;15.90;43.50;;;;;;5089627;28;45192;-76
2022/12/10 05:42:25;;;;;;;4.50;4.07;;;15.90;43.50;;;;;;5089854;28;45229;-75
2022/12/10 05:44:52;;;;;;;4.43;3.92;;;15.90;43.50;;;;;;5089646;28;45717;-75
2022/12/10 05:47:20;;;;;;;4.32;3.80;;;16.00;43.50;;;;;;5100685;27;45269;-75
2022/12/10 05:49:47;;;;;;;5.03;3.97;;;16.10;43.50;;;;;;5099759;27;45256;-75
2022/12/10 05:52:14;;;;;;;4.70;4.13;;;16.10;43.30;;;;;;5089288;28;45393;-75
2022/12/10 05:54:41;;;;;;;5.72;4.60;;;16.20;43.20;;;;;;5089406;28;45538;-76
2022/12/10 05:57:08;;;;;;;4.53;4.07;;;16.20;43.00;;;;;;5089273;28;45407;-75
2022/12/10 05:59:36;;;;;;;4.72;4.03;;;16.30;43.00;;;;;;5089518;28;45318;-76
2022/12/10 06:02:02;;;;;;;5.10;4.47;;;16.30;42.90;;;;;;5088702;28;45181;-75
2022/12/10 06:04:31;;;;;;;4.38;3.90;;;16.30;43.50;;;;;;5088931;28;45185;-75
2022/12/10 06:06:58;;;;;;;5.18;4.20;;;16.30;42.80;;;;;;5088686;27;45311;-76
2022/12/10 06:09:24;;;;;;;4.40;3.80;;;16.30;42.70;;;;;;5089176;28;45287;-75
2022/12/10 06:11:51;;;;;;;4.90;4.30;;;16.30;42.70;;;;;;5089235;28;45406;-75
2022/12/10 06:14:18;;;;;;;4.55;4.15;;;16.30;42.70;;;;;;5088981;28;46394;-75
2022/12/10 06:16:45;;;;;;;5.07;4.35;;;16.30;42.80;;;;;;5089035;28;45285;-75
2022/12/10 06:19:12;;;;;;;4.35;3.95;;;16.30;42.80;;;;;;5089123;28;45291;-75
2022/12/10 06:21:40;;;;;;;4.72;3.97;;;16.30;42.70;;;;;;5089573;28;45570;-75
2022/12/10 06:24:08;;;;;;;4.63;3.95;;;16.30;42.80;;;;;;5088733;28;45430;-75
2022/12/10 06:26:35;;;;;;;4.95;4.00;;;16.20;42.80;;;;;;5088799;28;45331;-75
2022/12/10 06:29:01;;;;;;;4.95;4.45;;;16.20;42.80;;;;;;5088854;28;45320;-75
2022/12/10 06:31:29;;;;;;;4.38;3.97;;;16.20;42.90;;;;;;5088959;28;45459;-75
2022/12/10 06:33:56;;;;;;;4.68;3.92;;;16.10;42.90;;;;;;5088693;28;46937;-75
2022/12/10 06:36:22;;;;;;;4.72;4.00;;;16.10;42.90;;;;;;5088549;28;45202;-75
2022/12/10 06:38:51;;;;;;;4.65;4.05;;;16.10;43.00;;;;;;5088875;28;45182;-74
2022/12/10 06:41:19;;;;;;;4.45;4.03;;;16.10;43.00;;;;;;5088985;28;45393;-75
2022/12/10 06:43:46;;;;;;;4.72;4.22;;;16.00;43.10;;;;;;5088789;28;46920;-75
2022/12/10 06:46:14;;;;;;;5.05;3.97;;;16.00;43.20;;;;;;5091088;27;45355;-75
2022/12/10 06:48:42;;;;;;;4.50;3.90;;;16.00;43.80;;;;;;5109104;27;45197;-75
2022/12/10 06:51:09;;;;;;;5.45;4.30;;;15.90;43.20;;;;;;5089820;28;45459;-75
2022/12/10 06:53:36;;;;;;;5.03;3.75;;;15.90;43.30;;;;;;5089230;28;45323;-75
2022/12/10 06:56:05;;;;;;;4.82;3.97;;;15.90;43.40;;;;;;5089540;28;45390;-75
2022/12/10 06:58:32;;;;;;;5.38;4.15;;;15.90;43.50;;;;;;5089561;28;45402;-74
2022/12/10 07:01:04;;;;;;;4.93;4.00;;;15.80;43.50;;;;;;5089509;28;45540;-75
2022/12/10 07:03:30;;;;;;;5.03;4.43;;;15.80;43.60;;;;;;5089244;28;45286;-75
2022/12/10 07:05:58;;;;;;;5.05;4.30;;;15.80;43.60;;;;;;5088939;28;45273;-74
2022/12/10 07:08:25;;;;;;;4.50;4.07;;;15.70;43.70;;;;;;5089039;28;45310;-74
2022/12/10 07:10:52;;;;;;;6.57;4.60;;;15.70;43.70;;;;;;5088613;28;45555;-74
2022/12/10 07:13:20;;;;;;;5.63;4.60;;;15.70;43.80;;;;;;5088129;28;45248;-75
2022/12/10 07:15:47;;;;;;;4.90;4.03;;;15.60;43.90;;;;;;5087699;28;45343;-75
2022/12/10 07:18:14;;;;;;;6.03;4.63;;;15.60;43.90;;;;;;5088095;28;45328;-75
2022/12/10 07:20:41;;;;;;;5.28;3.85;;;15.60;44.00;;;;;;5087479;28;45303;-74
2022/12/10 07:23:08;;;;;;;4.68;4.05;;;15.50;43.90;;;;;;5087724;28;45334;-74
2022/12/10 07:25:35;;;;;;;6.68;4.75;;;15.50;44.00;;;;;;5088012;28;45181;-75
2022/12/10 07:28:01;;;;;;;5.38;4.22;;;15.50;44.10;;;;;;5088334;28;44908;-75
2022/12/10 07:30:30;;;;;;;4.65;4.20;;;15.40;44.50;;;;;;5087345;28;45325;-75
2022/12/10 07:32:57;;;;;;;5.15;4.38;;;15.50;44.20;;;;;;5087333;28;45323;-75
2022/12/10 07:35:23;;;;;;;4.45;4.00;;;15.40;44.10;;;;;;5087585;28;45197;-75
2022/12/10 07:37:50;;;;;;;5.00;4.18;;;15.40;44.10;;;;;;5087983;28;45193;-74
2022/12/10 07:40:17;;;;;;;5.22;4.28;;;15.50;44.20;;;;;;5088018;28;45304;-74
2022/12/10 07:42:44;;;;;;;5.85;4.20;;;15.50;44.10;;;;;;5087464;28;46454;-74
2022/12/10 07:45:11;;;;;;;5.25;4.13;;;15.50;44.10;;;;;;5087698;28;45341;-74
2022/12/10 07:47:40;;;;;;;5.45;4.20;;;15.50;44.10;;;;;;5102080;27;45253;-74
2022/12/10 07:50:07;;;;;;;5.63;4.28;;;15.50;44.00;;;;;;5095019;27;45139;-74
2022/12/10 07:52:34;;;;;;;5.88;4.45;;;15.50;44.00;;;;;;5087017;28;46659;-75
2022/12/10 07:55:02;;;;;;;4.07;3.75;;;15.60;44.00;;;;;;5087307;28;45313;-75
2022/12/10 07:57:30;;;;;;;5.93;4.43;;;15.60;44.00;;;;;;5087394;28;45208;-74
2022/12/10 07:59:58;;;;;;;5.82;4.30;;;15.60;43.90;;;;;;5087657;28;45131;-75
2022/12/10 08:02:24;;;;;;;5.15;4.40;;;15.60;43.90;;;;;;5087077;28;45359;-74
2022/12/10 08:04:53;;;;;;;7.07;4.45;;;15.60;43.90;;;;;;5087187;28;45309;-74
2022/12/10 08:07:20;;;;;;;4.93;4.18;;;15.70;43.90;;;;;;5087792;28;45299;-75
2022/12/10 08:09:47;;;;;;;6.60;4.70;;;15.70;43.80;;;;;;5087615;28;45376;-75
2022/12/10 08:12:14;;;;;;;5.68;4.15;;;15.70;43.90;;;;;;5087959;28;46857;-75
2022/12/10 08:14:40;;;;;;;5.05;4.40;;;15.70;43.80;;;;;;5087694;28;45329;-75
2022/12/10 08:17:07;;;;;;;6.05;4.38;;;15.70;43.80;;;;;;5088448;28;45237;-75
2022/12/10 08:19:34;;;;;;;5.03;4.40;;;15.70;43.90;;;;;;5089674;28;45179;-75
2022/12/10 08:22:03;;;;;;;6.45;4.40;;;15.70;43.90;;;;;;5088117;28;45499;-74
2022/12/10 08:24:30;;;;;;;5.82;4.60;;;15.60;43.80;;;;;;5087675;28;45367;-74
2022/12/10 08:26:57;;;;;;;5.22;4.20;;;15.60;43.90;;;;;;5087732;28;45233;-74
2022/12/10 08:29:24;;;;;;;5.13;4.55;;;15.60;43.90;;;;;;5088675;28;45333;-74
2022/12/10 08:31:51;;;;;;;8.23;4.75;;;15.60;44.00;;;;;;5092632;27;45415;-74
2022/12/10 08:34:18;;;;;;;5.00;4.47;;;15.60;44.00;;;;;;5092274;28;45332;-75
2022/12/10 08:36:45;;;;;;;5.72;4.60;;;15.50;44.10;;;;;;5090582;28;45432;-76
2022/12/10 08:39:15;;;;;;;6.80;4.80;;;15.50;44.00;;;;;;5089447;28;45343;-75
2022/12/10 08:41:42;;;;;;;5.22;4.22;;;15.50;44.10;;;;;;5088137;28;45851;-76
2022/12/10 08:44:09;;;;;;;5.78;4.32;;;15.50;44.10;;;;;;5087473;28;45299;-76
2022/12/10 08:46:36;;;;;;;4.93;4.32;;;15.40;44.20;;;;;;5092724;27;45413;-76
2022/12/10 08:49:03;;;;;;;7.55;4.97;;;15.40;44.20;;;;;;5103782;27;45455;-76
2022/12/10 08:51:30;;;;;;;5.07;4.28;;;15.40;44.30;;;;;;5086843;28;45805;-76
2022/12/10 08:53:57;;;;;;;5.20;4.38;;;15.40;44.30;;;;;;5086688;28;45265;-76
2022/12/10 08:56:26;;;;;;;6.07;3.95;;;15.30;44.30;;;;;;5087222;28;45415;-76
2022/12/10 08:58:53;;;;;;;5.75;4.25;;;15.30;44.30;;;;;;5086785;28;45213;-76
2022/12/10 09:01:20;;;;;;;6.30;4.25;;;15.30;44.30;;;;;;5086425;28;45634;-77
2022/12/10 09:03:47;;;;;;;5.38;4.40;;;15.30;44.90;;;;;;5086694;28;45188;-77
2022/12/10 09:06:15;;;;;;;5.85;4.18;;;15.40;44.40;;;;;;5086557;28;45275;-76
2022/12/10 09:08:41;;;;;;;4.97;3.80;;;15.40;44.30;;;;;;5086926;28;45316;-76
2022/12/10 09:11:08;;;;;;;4.40;3.80;;;15.40;44.30;;;;;;5086588;28;46967;-76
2022/12/10 09:13:37;;;;;;;4.13;3.67;;;15.40;44.30;;;;;;5086354;28;46045;-76
2022/12/10 09:16:04;;;;;;;7.53;4.40;;;15.40;44.30;;;;;;5086307;28;45401;-76
2022/12/10 09:18:31;;;;;;;5.40;4.32;;;15.50;44.30;;;;;;5086459;28;45267;-77
2022/12/10 09:20:58;;;;;;;6.18;4.30;;;15.50;43.70;;;;;;5086153;28;45489;-77
2022/12/10 09:23:24;;;;;;;6.72;4.40;;;15.50;44.70;;;;;;5086233;28;45181;-77
2022/12/10 09:25:51;;;;;;;5.65;4.50;;;15.60;44.20;;;;;;5086434;28;45213;-77
2022/12/10 09:28:18;;;;;;;5.60;4.20;;;15.60;44.20;;;;;;5086811;28;45543;-76
2022/12/10 09:30:51;;;;;;;4.88;4.10;;;15.60;44.20;;;;;;5086369;28;45307;-76
2022/12/10 09:33:20;;;;;;;5.47;4.32;;;15.60;44.10;;;;;;5087292;28;45283;-76
2022/12/10 09:35:47;;;;;;;5.57;4.72;;;15.60;44.10;;;;;;5087853;28;45262;-76
2022/12/10 09:38:14;;;;;;;6.25;4.65;;;15.60;44.10;;;;;;5087105;28;45625;-76
2022/12/10 09:40:42;;;;;;;5.35;4.25;;;15.60;44.10;;;;;;5086622;28;46892;-76
2022/12/10 09:43:14;;;;;;;5.50;4.20;;;15.50;44.10;;;;;;5088435;28;45368;-76
2022/12/10 09:45:44;;;;;;;7.15;4.72;;;15.50;44.10;;;;;;5089664;28;45347;-75
2022/12/10 09:48:17;;;;;;;5.03;4.15;;;15.50;44.10;;;;;;5108343;27;45496;-76
2022/12/10 09:50:46;;;;;;;6.78;5.00;;;15.50;44.20;;;;;;5091170;27;46881;-76
2022/12/10 09:53:14;;;;;;;6.38;4.13;;;15.50;44.20;;;;;;5089670;28;45220;-76
2022/12/10 09:55:43;;;;;;;6.80;4.72;;;15.40;44.20;;;;;;5090098;28;45306;-76
2022/12/10 09:58:16;;;;;;;6.63;4.28;;;15.40;44.90;;;;;;5090423;28;45424;-76
2022/12/10 10:00:43;;;;;;;6.22;4.35;;;15.40;44.30;;;;;;5089818;28;45498;-76
2022/12/10 10:03:13;;;;;;;5.03;4.38;;;15.40;44.40;;;;;;5090062;28;45282;-76
2022/12/10 10:05:42;;;;;;;6.40;5.03;;;15.30;44.30;;;;;;5089549;28;45143;-76
2022/12/10 10:08:18;;;;;;;6.65;4.40;;;15.30;44.40;;;;;;5090145;28;45300;-76
2022/12/10 10:10:45;;;;;;;5.32;4.18;;;15.30;44.40;;;;;;5089541;28;45406;-76
2022/12/10 10:13:15;;;;;;;5.35;3.90;;;15.30;44.50;;;;;;5089882;28;45451;-76
2022/12/10 10:15:44;;;;;;;6.50;4.75;;;15.30;44.50;;;;;;5089549;28;45131;-76
2022/12/10 10:18:16;;;;;;;6.32;4.50;;;15.30;44.50;;;;;;5089810;28;45320;-76
2022/12/10 10:20:43;;;;;;;6.38;4.80;;;15.30;44.40;;;;;;5089224;28;45212;-76
2022/12/10 10:23:10;;;;;;;6.53;4.50;;;15.30;44.40;;;;;;5089131;28;45292;-77
2022/12/10 10:25:37;;;;;;;11.60;7.25;;;15.40;44.50;;;;;;5088850;28;45398;-76
2022/12/10 10:28:04;;;;;;;14.57;8.82;;;15.40;44.90;;;;;;5089118;28;45245;-76
2022/12/10 10:30:31;;;;;;;12.52;8.77;;;15.40;44.00;;;;;;5088606;28;45645;-76
2022/12/10 10:32:58;;;;;;;14.05;9.18;;;15.40;43.80;;;;;;5089122;28;45130;-76
2022/12/10 10:35:29;;;;;;;12.52;8.65;;;15.50;43.80;;;;;;5089122;28;45500;-76
2022/12/10 10:38:00;;;;;;;11.95;7.75;;;15.50;43.70;;;;;;5089372;28;45219;-76
2022/12/10 10:40:28;;;;;;;11.32;7.80;;;15.60;43.80;;;;;;5088562;28;45387;-76
2022/12/10 10:42:56;;;;;;;12.45;7.40;;;15.60;43.70;;;;;;5088602;28;45268;-76
2022/12/10 10:45:48;;;;;;;9.48;7.05;;;15.60;43.70;;;;;;5087893;28;45257;-76
2022/12/10 10:48:17;;;;;;;10.57;6.72;;;15.70;43.70;;;;;;5074222;28;45404;-76
2022/12/10 10:50:46;;;;;;;11.65;6.47;;;15.70;43.70;;;;;;5106667;27;46817;-76
2022/12/10 10:53:28;;;;;;;10.80;5.97;;;15.70;43.70;;;;;;5107482;27;45505;-76
2022/12/10 10:55:56;;;;;;;8.10;6.03;;;15.70;43.70;;;;;;5108755;27;45410;-75
2022/12/10 10:58:24;;;;;;;8.13;6.18;;;15.80;43.70;;;;;;5108884;27;45601;-75
2022/12/10 11:00:58;;;;;;;8.98;5.55;;;15.80;43.70;;;;;;5108953;27;46777;-75
2022/12/10 11:03:25;;;;;;;8.60;5.63;;;15.80;43.70;;;;;;5108576;27;45201;-76
2022/12/10 11:05:54;;;;;;;8.30;6.03;;;15.80;43.70;;;;;;5108780;27;45248;-75
2022/12/10 11:08:21;;;;;;;10.95;6.75;;;15.80;43.70;;;;;;5108999;27;45355;-75
2022/12/10 11:10:49;;;;;;;15.80;9.82;;;15.70;43.50;;;;;;5108517;27;47409;-75
2022/12/10 11:13:21;;;;;;;14.00;8.60;;;15.70;42.90;;;;;;5108527;27;45277;-75
2022/12/10 11:15:54;;;;;;;15.32;9.02;;;15.60;42.70;;;;;;5108744;27;45374;-76
2022/12/10 11:18:26;;;;;;;16.15;8.88;;;15.60;43.00;;;;;;5113545;27;45307;-76
2022/12/10 11:21:03;;;;;;;14.68;9.05;;;15.60;43.20;;;;;;5111900;27;45241;-76
2022/12/10 11:23:31;;;;;;;13.65;8.45;;;15.60;43.30;;;;;;5109873;27;45452;-76
2022/12/10 11:26:06;;;;;;;13.60;7.45;;;15.70;43.40;;;;;;5108324;27;45415;-76
2022/12/10 11:28:38;;;;;;;11.00;7.70;;;15.70;43.30;;;;;;5108682;27;45443;-76
2022/12/10 11:31:32;;;;;;;9.65;6.97;;;15.80;43.30;;;;;;5108246;27;46678;-76
2022/12/10 11:34:02;;;;;;;10.57;6.65;;;15.90;43.30;;;;;;5108241;27;45334;-78
2022/12/10 11:36:35;;;;;;;10.73;7.20;;;16.00;43.30;;;;;;5108109;27;45189;-77
2022/12/10 11:39:06;;;;;;;9.52;6.35;;;16.10;43.30;;;;;;5108597;27;45641;-77
2022/12/10 11:41:35;;;;;;;9.77;6.85;;;16.10;43.20;;;;;;5107962;27;45434;-77
2022/12/10 11:44:16;;;;;;;8.57;5.90;;;16.10;43.10;;;;;;5107652;27;45314;-77
2022/12/10 11:46:57;;;;;;;9.82;5.85;;;16.20;43.10;;;;;;5101251;27;45319;-77
2022/12/10 11:49:27;;;;;;;10.40;6.47;;;16.20;43.10;;;;;;5094477;27;45383;-76
2022/12/10 11:52:02;;;;;;;6.63;5.20;;;16.20;43.20;;;;;;5107420;27;46744;-78
2022/12/10 11:54:45;;;;;;;7.75;5.60;;;16.20;43.20;;;;;;5107818;27;45287;-78
2022/12/10 11:57:15;;;;;;;7.72;5.60;;;16.20;43.30;;;;;;5108251;27;45332;-79
2022/12/10 11:59:44;;;;;;;6.70;5.28;;;16.20;43.40;;;;;;5108344;27;45517;-78
2022/12/10 12:02:28;;;;;;;12.52;5.97;;;16.20;43.40;;;;;;5107587;27;45509;-78
2022/12/10 12:05:10;;;;;;;9.27;6.00;;;16.20;43.40;;;;;;5107760;27;45186;-76
2022/12/10 12:07:45;;;;;;;9.02;5.20;;;16.20;43.40;;;;;;5108254;27;45314;-80
2022/12/10 12:10:42;;;;;;;7.38;5.35;;;16.10;43.60;;;;;;5108368;27;45275;-79
2022/12/10 12:13:09;;;;;;;6.40;5.03;;;16.10;43.60;;;;;;5100959;27;46661;-79
2022/12/10 12:15:38;;;;;;;7.78;5.45;;;16.10;43.70;;;;;;5108105;27;45289;-79
2022/12/10 12:18:07;;;;;;;7.65;5.10;;;16.00;44.30;;;;;;5107672;27;45259;-79
2022/12/10 12:20:35;;;;;;;6.35;5.03;;;16.00;43.70;;;;;;5108446;27;45436;-79
2022/12/10 12:23:09;;;;;;;8.85;5.30;;;16.00;43.80;;;;;;5107527;27;46753;-79
2022/12/10 12:25:37;;;;;;;7.22;5.25;;;16.00;44.40;;;;;;5107547;27;45153;-79
2022/12/10 12:28:06;;;;;;;7.07;4.95;;;15.90;43.80;;;;;;5107957;27;45299;-79
2022/12/10 12:30:33;;;;;;;8.75;5.50;;;15.90;43.90;;;;;;5094700;27;45498;-78
2022/12/10 12:33:02;;;;;;;9.27;5.53;;;15.80;44.00;;;;;;5083414;28;45752;-78
2022/12/10 12:35:40;;;;;;;7.05;5.45;;;15.80;44.00;;;;;;5083459;28;45397;-79
2022/12/10 12:38:28;;;;;;;7.32;5.75;;;15.80;44.20;;;;;;5081315;28;45440;-78
2022/12/10 12:40:57;;;;;;;8.27;5.78;;;15.70;44.10;;;;;;5085557;28;45249;-76
2022/12/10 12:43:27;;;;;;;7.55;4.78;;;15.70;44.20;;;;;;5080596;28;46349;-79
2022/12/10 12:45:54;;;;;;;8.00;5.35;;;15.70;44.30;;;;;;5084925;28;45388;-78
2022/12/10 12:48:23;;;;;;;9.02;6.20;;;15.60;44.40;;;;;;5092914;27;45232;-78
2022/12/10 12:50:52;;;;;;;6.72;5.07;;;15.60;44.50;;;;;;5083112;27;45335;-78
2022/12/10 12:53:21;;;;;;;6.50;5.07;;;15.60;45.20;;;;;;5083340;28;46663;-77
2022/12/10 12:55:55;;;;;;;7.60;5.50;;;15.60;44.60;;;;;;5081609;28;45606;-77
2022/12/10 12:58:33;;;;;;;14.60;7.95;;;15.60;44.90;;;;;;5075748;28;45502;-79
2022/12/10 13:01:02;;;;;;;13.95;8.10;;;15.60;45.00;;;;;;5081320;28;45473;-78
2022/12/10 13:03:33;;;;;;;15.18;9.73;;;15.60;45.10;;;;;;5079966;28;45426;-73